IE-0001 weather

Britta's House Airstrip
County Tipperary, Ireland

Public forecast

Using degrees Celsius for public forecast. Weather courtesy of forecast.io.

Closest aviation weather report (METAR) to Britta's House Airstrip

Closest report is Shannon Airport, 19.4 nm (35.9 km) WNW. Retrieved 2020/07/08 14:30 UTC (11 minutes ago):

EINN 081430Z 24007KT 4000 -RADZ FEW004 BKN007 BKN012 16/15 Q1012 NOSIG

Closest aviation forecast (TAF) to Britta's House Airstrip

Closest forecast is Shannon Airport, 19.4 nm (35.9 km) WNW. Retrieved 2020/07/08 12:10 UTC (3 hours ago):

TAF EINN 081100Z 0812/0912 VRB03KT 9999 SCT005 BKN008 TEMPO 0812/0905 3000 RADZ BKN004 BECMG 0817/0819 21010KT PROB30 TEMPO 0819/0902 0400 FG BKN001 BECMG 0822/0824 06008KT BECMG 0904/0906 SCT015 BKN025